sensor_id;sensor_type;location;lat;lon;timestamp;temperature;humidity
5850;DHT22;2951;47.712;9.400;2023-03-03T00:01:05;2.40;99.90
5850;DHT22;2951;47.712;9.400;2023-03-03T00:03:32;2.40;99.90
5850;DHT22;2951;47.712;9.400;2023-03-03T00:05:59;2.30;99.90
5850;DHT22;2951;47.712;9.400;2023-03-03T00:08:25;2.30;99.90
5850;DHT22;2951;47.712;9.400;2023-03-03T00:10:52;2.30;99.90
5850;DHT22;2951;47.712;9.400;2023-03-03T00:13:22;2.30;99.90
5850;DHT22;2951;47.712;9.400;2023-03-03T00:15:49;2.20;99.90
5850;DHT22;2951;47.712;9.400;2023-03-03T00:18:21;2.10;99.90
5850;DHT22;2951;47.712;9.400;2023-03-03T00:20:52;2.10;99.90
5850;DHT22;2951;47.712;9.400;2023-03-03T00:25:48;2.00;99.90
5850;DHT22;2951;47.712;9.400;2023-03-03T00:28:22;2.00;99.90
5850;DHT22;2951;47.712;9.400;2023-03-03T00:30:50;2.00;99.90
5850;DHT22;2951;47.712;9.400;2023-03-03T00:33:20;2.10;99.90
5850;DHT22;2951;47.712;9.400;2023-03-03T00:35:48;2.10;99.90
5850;DHT22;2951;47.712;9.400;2023-03-03T00:38:18;2.10;99.90
5850;DHT22;2951;47.712;9.400;2023-03-03T00:40:45;2.20;99.90
5850;DHT22;2951;47.712;9.400;2023-03-03T00:43:19;2.10;99.90
5850;DHT22;2951;47.712;9.400;2023-03-03T00:45:49;2.10;99.90
5850;DHT22;2951;47.712;9.400;2023-03-03T00:50:46;2.30;99.90
5850;DHT22;2951;47.712;9.400;2023-03-03T00:53:15;2.30;99.90
5850;DHT22;2951;47.712;9.400;2023-03-03T00:55:43;2.20;99.90
5850;DHT22;2951;47.712;9.400;2023-03-03T00:58:10;2.20;99.90
5850;DHT22;2951;47.712;9.400;2023-03-03T01:00:37;2.20;99.90
5850;DHT22;2951;47.712;9.400;2023-03-03T01:03:05;2.20;99.90
5850;DHT22;2951;47.712;9.400;2023-03-03T01:05:32;2.20;99.90
5850;DHT22;2951;47.712;9.400;2023-03-03T01:08:00;2.10;99.90
5850;DHT22;2951;47.712;9.400;2023-03-03T01:10:27;2.10;99.90
5850;DHT22;2951;47.712;9.400;2023-03-03T01:12:55;2.10;99.90
5850;DHT22;2951;47.712;9.400;2023-03-03T01:15:23;2.10;99.90
5850;DHT22;2951;47.712;9.400;2023-03-03T01:17:50;2.20;99.90
5850;DHT22;2951;47.712;9.400;2023-03-03T01:20:17;2.20;99.90
5850;DHT22;2951;47.712;9.400;2023-03-03T01:22:44;2.10;99.90
5850;DHT22;2951;47.712;9.400;2023-03-03T01:25:10;2.20;99.90
5850;DHT22;2951;47.712;9.400;2023-03-03T01:27:37;2.20;99.90
5850;DHT22;2951;47.712;9.400;2023-03-03T01:30:05;2.20;99.90
5850;DHT22;2951;47.712;9.400;2023-03-03T01:32:32;2.20;99.90
5850;DHT22;2951;47.712;9.400;2023-03-03T01:34:59;2.20;99.90
5850;DHT22;2951;47.712;9.400;2023-03-03T01:37:26;2.20;99.90
5850;DHT22;2951;47.712;9.400;2023-03-03T01:39:53;2.20;99.90
5850;DHT22;2951;47.712;9.400;2023-03-03T01:42:20;2.10;99.90
5850;DHT22;2951;47.712;9.400;2023-03-03T01:44:47;2.10;99.90
5850;DHT22;2951;47.712;9.400;2023-03-03T01:47:15;2.10;99.90
5850;DHT22;2951;47.712;9.400;2023-03-03T01:49:55;2.10;99.90
5850;DHT22;2951;47.712;9.400;2023-03-03T01:52:24;2.10;99.90
5850;DHT22;2951;47.712;9.400;2023-03-03T01:54:59;2.20;99.90
5850;DHT22;2951;47.712;9.400;2023-03-03T01:57:37;2.20;99.90
5850;DHT22;2951;47.712;9.400;2023-03-03T02:00:05;2.30;99.90
5850;DHT22;2951;47.712;9.400;2023-03-03T02:02:32;2.30;99.90
5850;DHT22;2951;47.712;9.400;2023-03-03T02:05:00;2.30;99.90
5850;DHT22;2951;47.712;9.400;2023-03-03T02:07:27;2.30;99.90
5850;DHT22;2951;47.712;9.400;2023-03-03T02:10:05;2.20;99.90
5850;DHT22;2951;47.712;9.400;2023-03-03T02:12:33;2.20;99.90
5850;DHT22;2951;47.712;9.400;2023-03-03T02:15:07;2.30;99.90
5850;DHT22;2951;47.712;9.400;2023-03-03T02:17:34;2.40;99.90
5850;DHT22;2951;47.712;9.400;2023-03-03T02:20:10;2.20;99.90
5850;DHT22;2951;47.712;9.400;2023-03-03T02:22:43;2.20;99.90
5850;DHT22;2951;47.712;9.400;2023-03-03T02:25:14;2.30;99.90
5850;DHT22;2951;47.712;9.400;2023-03-03T02:27:43;2.30;99.90
5850;DHT22;2951;47.712;9.400;2023-03-03T02:30:14;2.30;99.90
5850;DHT22;2951;47.712;9.400;2023-03-03T02:32:41;2.30;99.90
5850;DHT22;2951;47.712;9.400;2023-03-03T02:37:54;2.20;99.90
5850;DHT22;2951;47.712;9.400;2023-03-03T02:40:22;2.20;99.90
5850;DHT22;2951;47.712;9.400;2023-03-03T02:42:51;2.30;99.90
5850;DHT22;2951;47.712;9.400;2023-03-03T02:45:18;2.20;99.90
5850;DHT22;2951;47.712;9.400;2023-03-03T02:47:51;2.20;99.90
5850;DHT22;2951;47.712;9.400;2023-03-03T02:50:17;2.20;99.90
5850;DHT22;2951;47.712;9.400;2023-03-03T02:52:44;2.20;99.90
5850;DHT22;2951;47.712;9.400;2023-03-03T02:55:11;2.20;99.90
5850;DHT22;2951;47.712;9.400;2023-03-03T02:57:37;2.10;99.90
5850;DHT22;2951;47.712;9.400;2023-03-03T03:00:05;2.20;99.90
5850;DHT22;2951;47.712;9.400;2023-03-03T03:02:32;2.30;99.90
5850;DHT22;2951;47.712;9.400;2023-03-03T03:04:59;2.30;99.90
5850;DHT22;2951;47.712;9.400;2023-03-03T03:07:25;2.30;99.90
5850;DHT22;2951;47.712;9.400;2023-03-03T03:09:52;2.20;99.90
5850;DHT22;2951;47.712;9.400;2023-03-03T03:12:18;2.10;99.90
5850;DHT22;2951;47.712;9.400;2023-03-03T03:14:46;2.00;99.90
5850;DHT22;2951;47.712;9.400;2023-03-03T03:17:13;2.00;99.90
5850;DHT22;2951;47.712;9.400;2023-03-03T03:19:40;2.00;99.90
5850;DHT22;2951;47.712;9.400;2023-03-03T03:22:07;2.10;99.90
5850;DHT22;2951;47.712;9.400;2023-03-03T03:24:33;2.10;99.90
5850;DHT22;2951;47.712;9.400;2023-03-03T03:27:00;2.10;99.90
5850;DHT22;2951;47.712;9.400;2023-03-03T03:29:27;2.10;99.90
5850;DHT22;2951;47.712;9.400;2023-03-03T03:31:53;2.10;99.90
5850;DHT22;2951;47.712;9.400;2023-03-03T03:34:20;2.20;99.90
5850;DHT22;2951;47.712;9.400;2023-03-03T03:36:47;2.20;99.90
5850;DHT22;2951;47.712;9.400;2023-03-03T03:39:14;2.30;99.90
5850;DHT22;2951;47.712;9.400;2023-03-03T03:41:42;2.30;99.90
5850;DHT22;2951;47.712;9.400;2023-03-03T03:44:09;2.30;99.90
5850;DHT22;2951;47.712;9.400;2023-03-03T03:46:35;2.30;99.90
5850;DHT22;2951;47.712;9.400;2023-03-03T03:49:02;2.30;99.90
5850;DHT22;2951;47.712;9.400;2023-03-03T03:51:29;2.20;99.90
5850;DHT22;2951;47.712;9.400;2023-03-03T03:53:56;2.10;99.90
5850;DHT22;2951;47.712;9.400;2023-03-03T03:56:23;2.00;99.90
5850;DHT22;2951;47.712;9.400;2023-03-03T03:58:49;2.10;99.90
5850;DHT22;2951;47.712;9.400;2023-03-03T04:01:16;2.10;99.90
5850;DHT22;2951;47.712;9.400;2023-03-03T04:03:43;2.10;99.90
5850;DHT22;2951;47.712;9.400;2023-03-03T04:06:09;2.10;99.90
5850;DHT22;2951;47.712;9.400;2023-03-03T04:08:36;2.10;99.90
5850;DHT22;2951;47.712;9.400;2023-03-03T04:11:02;2.00;99.90
5850;DHT22;2951;47.712;9.400;2023-03-03T04:13:29;2.00;99.90
5850;DHT22;2951;47.712;9.400;2023-03-03T04:15:57;2.00;99.90
5850;DHT22;2951;47.712;9.400;2023-03-03T04:18:24;2.00;99.90
5850;DHT22;2951;47.712;9.400;2023-03-03T04:20:50;1.90;99.90
5850;DHT22;2951;47.712;9.400;2023-03-03T04:23:18;1.80;99.90
5850;DHT22;2951;47.712;9.400;2023-03-03T04:25:45;1.90;99.90
5850;DHT22;2951;47.712;9.400;2023-03-03T04:28:12;1.90;99.90
5850;DHT22;2951;47.712;9.400;2023-03-03T04:30:39;2.00;99.90
5850;DHT22;2951;47.712;9.400;2023-03-03T04:33:06;2.10;99.90
5850;DHT22;2951;47.712;9.400;2023-03-03T04:35:33;2.20;99.90
5850;DHT22;2951;47.712;9.400;2023-03-03T04:38:00;2.10;99.90
5850;DHT22;2951;47.712;9.400;2023-03-03T04:40:26;2.10;99.90
5850;DHT22;2951;47.712;9.400;2023-03-03T04:42:53;2.10;99.90
5850;DHT22;2951;47.712;9.400;2023-03-03T04:45:19;2.10;99.90
5850;DHT22;2951;47.712;9.400;2023-03-03T04:47:46;2.10;99.90
5850;DHT22;2951;47.712;9.400;2023-03-03T04:50:13;2.10;99.90
5850;DHT22;2951;47.712;9.400;2023-03-03T04:52:39;2.10;99.90
5850;DHT22;2951;47.712;9.400;2023-03-03T04:55:06;2.10;99.90
5850;DHT22;2951;47.712;9.400;2023-03-03T04:57:35;2.10;99.90
5850;DHT22;2951;47.712;9.400;2023-03-03T05:00:03;2.10;99.90
5850;DHT22;2951;47.712;9.400;2023-03-03T05:02:29;2.00;99.90
5850;DHT22;2951;47.712;9.400;2023-03-03T05:04:56;2.00;99.90
5850;DHT22;2951;47.712;9.400;2023-03-03T05:07:23;2.00;99.90
5850;DHT22;2951;47.712;9.400;2023-03-03T05:09:50;1.80;99.90
5850;DHT22;2951;47.712;9.400;2023-03-03T05:12:16;1.80;99.90
5850;DHT22;2951;47.712;9.400;2023-03-03T05:14:43;2.00;99.90
5850;DHT22;2951;47.712;9.400;2023-03-03T05:17:10;2.10;99.90
5850;DHT22;2951;47.712;9.400;2023-03-03T05:19:36;2.20;99.90
5850;DHT22;2951;47.712;9.400;2023-03-03T05:22:03;2.10;99.90
5850;DHT22;2951;47.712;9.400;2023-03-03T05:24:29;2.10;99.90
5850;DHT22;2951;47.712;9.400;2023-03-03T05:26:56;2.00;99.90
5850;DHT22;2951;47.712;9.400;2023-03-03T05:29:23;2.00;99.90
5850;DHT22;2951;47.712;9.400;2023-03-03T05:31:49;2.00;99.90
5850;DHT22;2951;47.712;9.400;2023-03-03T05:34:16;2.00;99.90
5850;DHT22;2951;47.712;9.400;2023-03-03T05:36:43;2.00;99.90
5850;DHT22;2951;47.712;9.400;2023-03-03T05:39:10;2.00;99.90
5850;DHT22;2951;47.712;9.400;2023-03-03T05:41:36;2.00;99.90
5850;DHT22;2951;47.712;9.400;2023-03-03T05:44:03;2.00;99.90
5850;DHT22;2951;47.712;9.400;2023-03-03T05:46:30;1.90;99.90
5850;DHT22;2951;47.712;9.400;2023-03-03T05:48:56;2.00;99.90
5850;DHT22;2951;47.712;9.400;2023-03-03T05:51:23;1.90;99.90
5850;DHT22;2951;47.712;9.400;2023-03-03T05:53:50;1.90;99.90
5850;DHT22;2951;47.712;9.400;2023-03-03T05:56:17;1.80;99.90
5850;DHT22;2951;47.712;9.400;2023-03-03T05:58:43;1.80;99.90
5850;DHT22;2951;47.712;9.400;2023-03-03T06:01:10;1.90;99.90
5850;DHT22;2951;47.712;9.400;2023-03-03T06:03:37;2.00;99.90
5850;DHT22;2951;47.712;9.400;2023-03-03T06:06:04;2.00;99.90
5850;DHT22;2951;47.712;9.400;2023-03-03T06:08:31;2.00;99.90
5850;DHT22;2951;47.712;9.400;2023-03-03T06:10:58;2.00;99.90
5850;DHT22;2951;47.712;9.400;2023-03-03T06:13:24;2.00;99.90
5850;DHT22;2951;47.712;9.400;2023-03-03T06:15:51;2.00;99.90
5850;DHT22;2951;47.712;9.400;2023-03-03T06:18:18;2.00;99.90
5850;DHT22;2951;47.712;9.400;2023-03-03T06:20:44;2.00;99.90
5850;DHT22;2951;47.712;9.400;2023-03-03T06:23:11;2.00;99.90
5850;DHT22;2951;47.712;9.400;2023-03-03T06:25:38;2.10;99.90
5850;DHT22;2951;47.712;9.400;2023-03-03T06:28:04;2.10;99.90
5850;DHT22;2951;47.712;9.400;2023-03-03T06:30:31;2.10;99.90
5850;DHT22;2951;47.712;9.400;2023-03-03T06:32:58;2.20;99.90
5850;DHT22;2951;47.712;9.400;2023-03-03T06:35:24;2.20;99.90
5850;DHT22;2951;47.712;9.400;2023-03-03T06:37:51;2.20;99.90
5850;DHT22;2951;47.712;9.400;2023-03-03T06:40:18;2.20;99.90
5850;DHT22;2951;47.712;9.400;2023-03-03T06:42:44;2.20;99.90
5850;DHT22;2951;47.712;9.400;2023-03-03T06:45:11;2.30;99.90
5850;DHT22;2951;47.712;9.400;2023-03-03T06:47:38;2.20;99.90
5850;DHT22;2951;47.712;9.400;2023-03-03T06:50:05;2.30;99.90
5850;DHT22;2951;47.712;9.400;2023-03-03T06:52:31;2.30;99.90
5850;DHT22;2951;47.712;9.400;2023-03-03T06:54:59;2.30;99.90
5850;DHT22;2951;47.712;9.400;2023-03-03T06:57:28;2.40;99.90
5850;DHT22;2951;47.712;9.400;2023-03-03T07:00:14;2.40;99.90
5850;DHT22;2951;47.712;9.400;2023-03-03T07:02:41;2.50;99.90
5850;DHT22;2951;47.712;9.400;2023-03-03T07:05:15;2.60;99.90
5850;DHT22;2951;47.712;9.400;2023-03-03T07:07:42;2.70;99.90
5850;DHT22;2951;47.712;9.400;2023-03-03T07:10:15;2.60;99.90
5850;DHT22;2951;47.712;9.400;2023-03-03T07:12:43;2.70;99.90
5850;DHT22;2951;47.712;9.400;2023-03-03T07:15:17;2.70;99.90
5850;DHT22;2951;47.712;9.400;2023-03-03T07:17:51;2.60;99.90
5850;DHT22;2951;47.712;9.400;2023-03-03T07:20:23;2.60;99.90
5850;DHT22;2951;47.712;9.400;2023-03-03T07:22:50;2.60;99.90
5850;DHT22;2951;47.712;9.400;2023-03-03T07:25:39;2.60;99.90
5850;DHT22;2951;47.712;9.400;2023-03-03T07:28:17;2.60;99.90
5850;DHT22;2951;47.712;9.400;2023-03-03T07:30:45;2.70;99.90
5850;DHT22;2951;47.712;9.400;2023-03-03T07:33:19;2.70;99.90
5850;DHT22;2951;47.712;9.400;2023-03-03T07:35:49;2.80;99.90
5850;DHT22;2951;47.712;9.400;2023-03-03T07:38:19;2.90;99.90
5850;DHT22;2951;47.712;9.400;2023-03-03T07:40:49;2.90;99.90
5850;DHT22;2951;47.712;9.400;2023-03-03T07:45:46;2.90;99.90
5850;DHT22;2951;47.712;9.400;2023-03-03T07:48:21;3.00;99.90
5850;DHT22;2951;47.712;9.400;2023-03-03T07:50:49;3.00;99.90
5850;DHT22;2951;47.712;9.400;2023-03-03T07:53:25;3.10;99.90
5850;DHT22;2951;47.712;9.400;2023-03-03T07:55:52;3.10;99.90
5850;DHT22;2951;47.712;9.400;2023-03-03T07:58:21;3.10;99.90
5850;DHT22;2951;47.712;9.400;2023-03-03T08:01:20;3.10;99.90
5850;DHT22;2951;47.712;9.400;2023-03-03T08:03:38;3.00;99.90
5850;DHT22;2951;47.712;9.400;2023-03-03T08:06:08;3.20;99.90
5850;DHT22;2951;47.712;9.400;2023-03-03T08:08:47;3.20;99.90
5850;DHT22;2951;47.712;9.400;2023-03-03T08:11:14;3.20;99.90
5850;DHT22;2951;47.712;9.400;2023-03-03T08:13:41;3.40;99.90
5850;DHT22;2951;47.712;9.400;2023-03-03T08:18:36;3.30;99.90
5850;DHT22;2951;47.712;9.400;2023-03-03T08:21:13;3.40;99.90
5850;DHT22;2951;47.712;9.400;2023-03-03T08:23:40;3.50;99.90
5850;DHT22;2951;47.712;9.400;2023-03-03T08:26:07;3.60;99.90
5850;DHT22;2951;47.712;9.400;2023-03-03T08:28:34;3.50;99.90
5850;DHT22;2951;47.712;9.400;2023-03-03T08:31:01;3.70;99.90
5850;DHT22;2951;47.712;9.400;2023-03-03T08:33:43;3.70;99.90
5850;DHT22;2951;47.712;9.400;2023-03-03T08:36:10;3.80;99.90
5850;DHT22;2951;47.712;9.400;2023-03-03T08:38:37;3.80;99.90
5850;DHT22;2951;47.712;9.400;2023-03-03T08:41:04;3.80;99.90
5850;DHT22;2951;47.712;9.400;2023-03-03T08:43:31;3.90;99.90
5850;DHT22;2951;47.712;9.400;2023-03-03T08:45:59;3.90;99.90
5850;DHT22;2951;47.712;9.400;2023-03-03T08:48:26;3.90;99.90
5850;DHT22;2951;47.712;9.400;2023-03-03T08:50:53;4.00;99.90
5850;DHT22;2951;47.712;9.400;2023-03-03T08:53:21;4.20;99.90
5850;DHT22;2951;47.712;9.400;2023-03-03T08:55:47;4.20;99.90
5850;DHT22;2951;47.712;9.400;2023-03-03T08:58:15;4.30;99.90
5850;DHT22;2951;47.712;9.400;2023-03-03T09:00:41;4.40;99.90
5850;DHT22;2951;47.712;9.400;2023-03-03T09:03:09;4.50;99.90
5850;DHT22;2951;47.712;9.400;2023-03-03T09:05:36;4.40;99.90
5850;DHT22;2951;47.712;9.400;2023-03-03T09:08:04;4.60;99.90
5850;DHT22;2951;47.712;9.400;2023-03-03T09:10:30;4.70;99.90
5850;DHT22;2951;47.712;9.400;2023-03-03T09:12:59;4.80;99.90
5850;DHT22;2951;47.712;9.400;2023-03-03T09:15:31;4.80;99.90
5850;DHT22;2951;47.712;9.400;2023-03-03T09:17:58;4.70;99.90
5850;DHT22;2951;47.712;9.400;2023-03-03T09:22:54;4.90;99.90
5850;DHT22;2951;47.712;9.400;2023-03-03T09:25:22;4.90;99.90
5850;DHT22;2951;47.712;9.400;2023-03-03T09:27:51;5.00;99.90
5850;DHT22;2951;47.712;9.400;2023-03-03T09:30:27;5.00;99.90
5850;DHT22;2951;47.712;9.400;2023-03-03T09:32:56;5.10;99.90
5850;DHT22;2951;47.712;9.400;2023-03-03T09:37:53;5.30;99.90
5850;DHT22;2951;47.712;9.400;2023-03-03T09:46:02;5.40;99.90
5850;DHT22;2951;47.712;9.400;2023-03-03T09:48:39;5.40;99.90
5850;DHT22;2951;47.712;9.400;2023-03-03T09:51:12;5.40;99.90
5850;DHT22;2951;47.712;9.400;2023-03-03T09:56:32;5.80;99.90
5850;DHT22;2951;47.712;9.400;2023-03-03T10:06:33;5.80;99.90
5850;DHT22;2951;47.712;9.400;2023-03-03T10:09:05;5.90;99.90
5850;DHT22;2951;47.712;9.400;2023-03-03T10:11:40;5.70;99.90
5850;DHT22;2951;47.712;9.400;2023-03-03T10:21:49;5.50;99.90
5850;DHT22;2951;47.712;9.400;2023-03-03T10:24:24;5.60;99.90
5850;DHT22;2951;47.712;9.400;2023-03-03T10:50:45;6.10;99.90
5850;DHT22;2951;47.712;9.400;2023-03-03T10:53:20;6.00;99.90
5850;DHT22;2951;47.712;9.400;2023-03-03T10:55:50;6.20;99.90
5850;DHT22;2951;47.712;9.400;2023-03-03T11:01:03;6.80;99.90
5850;DHT22;2951;47.712;9.400;2023-03-03T11:08:45;7.30;99.90
5850;DHT22;2951;47.712;9.400;2023-03-03T11:16:36;7.30;99.90
5850;DHT22;2951;47.712;9.400;2023-03-03T11:24:40;6.40;99.90
5850;DHT22;2951;47.712;9.400;2023-03-03T11:27:21;6.50;99.90
5850;DHT22;2951;47.712;9.400;2023-03-03T11:30:14;6.80;99.90
5850;DHT22;2951;47.712;9.400;2023-03-03T11:32:47;6.90;99.90
5850;DHT22;2951;47.712;9.400;2023-03-03T11:35:18;7.20;99.90
5850;DHT22;2951;47.712;9.400;2023-03-03T11:38:05;6.90;99.90
5850;DHT22;2951;47.712;9.400;2023-03-03T11:45:44;6.90;99.90
5850;DHT22;2951;47.712;9.400;2023-03-03T11:48:32;6.90;99.90
5850;DHT22;2951;47.712;9.400;2023-03-03T11:51:02;7.10;99.90
5850;DHT22;2951;47.712;9.400;2023-03-03T11:56:24;6.90;99.90
5850;DHT22;2951;47.712;9.400;2023-03-03T11:58:54;6.70;99.90
5850;DHT22;2951;47.712;9.400;2023-03-03T12:01:35;6.50;99.90
5850;DHT22;2951;47.712;9.400;2023-03-03T12:04:11;6.60;99.90
5850;DHT22;2951;47.712;9.400;2023-03-03T12:09:57;6.90;99.90
5850;DHT22;2951;47.712;9.400;2023-03-03T12:12:32;6.90;99.90
5850;DHT22;2951;47.712;9.400;2023-03-03T12:17:35;6.90;99.90
5850;DHT22;2951;47.712;9.400;2023-03-03T12:22:33;7.00;99.90
5850;DHT22;2951;47.712;9.400;2023-03-03T12:38:14;7.30;99.90
5850;DHT22;2951;47.712;9.400;2023-03-03T12:40:50;7.20;99.90
5850;DHT22;2951;47.712;9.400;2023-03-03T12:43:23;7.10;99.90
5850;DHT22;2951;47.712;9.400;2023-03-03T12:48:36;7.40;99.90
5850;DHT22;2951;47.712;9.400;2023-03-03T12:56:18;7.40;99.90
5850;DHT22;2951;47.712;9.400;2023-03-03T12:59:04;7.60;99.90
5850;DHT22;2951;47.712;9.400;2023-03-03T13:01:43;7.70;99.90
5850;DHT22;2951;47.712;9.400;2023-03-03T13:04:45;8.00;99.90
5850;DHT22;2951;47.712;9.400;2023-03-03T13:07:13;7.80;99.90
5850;DHT22;2951;47.712;9.400;2023-03-03T13:17:30;7.20;99.90
5850;DHT22;2951;47.712;9.400;2023-03-03T13:20:04;7.40;99.90
5850;DHT22;2951;47.712;9.400;2023-03-03T13:25:13;7.60;99.90
5850;DHT22;2951;47.712;9.400;2023-03-03T13:27:45;7.40;99.90
5850;DHT22;2951;47.712;9.400;2023-03-03T13:33:05;7.20;99.90
5850;DHT22;2951;47.712;9.400;2023-03-03T13:35:32;7.30;99.90
5850;DHT22;2951;47.712;9.400;2023-03-03T13:38:03;7.50;99.90
5850;DHT22;2951;47.712;9.400;2023-03-03T13:40:38;7.50;99.90
5850;DHT22;2951;47.712;9.400;2023-03-03T13:43:14;7.50;99.90
5850;DHT22;2951;47.712;9.400;2023-03-03T13:48:25;7.70;99.90
5850;DHT22;2951;47.712;9.400;2023-03-03T13:50:57;7.60;99.90
5850;DHT22;2951;47.712;9.400;2023-03-03T13:56:23;7.60;99.90
5850;DHT22;2951;47.712;9.400;2023-03-03T13:59:16;7.90;99.90
5850;DHT22;2951;47.712;9.400;2023-03-03T14:04:28;8.10;99.90
5850;DHT22;2951;47.712;9.400;2023-03-03T14:07:32;8.40;99.90
5850;DHT22;2951;47.712;9.400;2023-03-03T14:15:05;7.80;99.90
5850;DHT22;2951;47.712;9.400;2023-03-03T14:17:37;7.60;99.90
5850;DHT22;2951;47.712;9.400;2023-03-03T14:20:11;7.50;99.90
5850;DHT22;2951;47.712;9.400;2023-03-03T14:22:52;7.50;99.90
5850;DHT22;2951;47.712;9.400;2023-03-03T14:25:20;7.50;99.90
5850;DHT22;2951;47.712;9.400;2023-03-03T14:30:27;7.50;99.90
5850;DHT22;2951;47.712;9.400;2023-03-03T14:35:24;7.60;99.90
5850;DHT22;2951;47.712;9.400;2023-03-03T14:37:59;7.40;99.90
5850;DHT22;2951;47.712;9.400;2023-03-03T14:40:31;7.50;99.90
5850;DHT22;2951;47.712;9.400;2023-03-03T14:42:59;7.50;99.90
5850;DHT22;2951;47.712;9.400;2023-03-03T14:45:37;7.30;99.90
5850;DHT22;2951;47.712;9.400;2023-03-03T14:48:13;7.20;99.90
5850;DHT22;2951;47.712;9.400;2023-03-03T14:50:43;7.20;99.90
5850;DHT22;2951;47.712;9.400;2023-03-03T14:53:15;7.20;99.90
5850;DHT22;2951;47.712;9.400;2023-03-03T14:55:46;7.10;99.90
5850;DHT22;2951;47.712;9.400;2023-03-03T14:58:24;7.20;99.90
5850;DHT22;2951;47.712;9.400;2023-03-03T15:01:05;7.30;99.90
5850;DHT22;2951;47.712;9.400;2023-03-03T15:03:33;7.20;99.90
5850;DHT22;2951;47.712;9.400;2023-03-03T15:06:09;7.20;99.90
5850;DHT22;2951;47.712;9.400;2023-03-03T15:08:38;7.30;99.90
5850;DHT22;2951;47.712;9.400;2023-03-03T15:13:43;7.10;99.90
5850;DHT22;2951;47.712;9.400;2023-03-03T15:16:18;7.10;99.90
5850;DHT22;2951;47.712;9.400;2023-03-03T15:21:38;7.20;99.90
5850;DHT22;2951;47.712;9.400;2023-03-03T15:29:13;7.30;99.90
5850;DHT22;2951;47.712;9.400;2023-03-03T15:31:51;7.30;99.90
5850;DHT22;2951;47.712;9.400;2023-03-03T15:42:12;7.00;99.90
5850;DHT22;2951;47.712;9.400;2023-03-03T15:47:33;7.00;99.90
5850;DHT22;2951;47.712;9.400;2023-03-03T16:00:48;7.10;99.90
5850;DHT22;2951;47.712;9.400;2023-03-03T16:03:24;7.10;99.90
5850;DHT22;2951;47.712;9.400;2023-03-03T16:05:52;7.10;99.90
5850;DHT22;2951;47.712;9.400;2023-03-03T16:08:22;6.90;99.90
5850;DHT22;2951;47.712;9.400;2023-03-03T16:27:14;6.60;99.90
5850;DHT22;2951;47.712;9.400;2023-03-03T16:32:12;6.60;99.90
5850;DHT22;2951;47.712;9.400;2023-03-03T16:37:21;6.50;99.90
5850;DHT22;2951;47.712;9.400;2023-03-03T16:42:41;6.40;99.90
5850;DHT22;2951;47.712;9.400;2023-03-03T16:45:21;6.30;99.90
5850;DHT22;2951;47.712;9.400;2023-03-03T16:50:25;6.20;99.90
5850;DHT22;2951;47.712;9.400;2023-03-03T16:52:54;6.20;99.90
5850;DHT22;2951;47.712;9.400;2023-03-03T16:55:26;6.20;99.90
5850;DHT22;2951;47.712;9.400;2023-03-03T17:00:56;6.10;99.90
5850;DHT22;2951;47.712;9.400;2023-03-03T17:08:52;6.00;99.90
5850;DHT22;2951;47.712;9.400;2023-03-03T17:11:28;5.90;99.90
5850;DHT22;2951;47.712;9.400;2023-03-03T17:14:17;5.90;99.90
5850;DHT22;2951;47.712;9.400;2023-03-03T17:16:57;5.90;99.90
5850;DHT22;2951;47.712;9.400;2023-03-03T17:35:12;6.00;99.90
5850;DHT22;2951;47.712;9.400;2023-03-03T17:40:18;6.00;99.90
5850;DHT22;2951;47.712;9.400;2023-03-03T17:45:34;6.00;99.90
5850;DHT22;2951;47.712;9.400;2023-03-03T17:53:28;5.90;99.90
5850;DHT22;2951;47.712;9.400;2023-03-03T18:04:30;5.80;99.90
5850;DHT22;2951;47.712;9.400;2023-03-03T18:17:34;5.70;99.90
5850;DHT22;2951;47.712;9.400;2023-03-03T18:22:50;5.70;99.90
5850;DHT22;2951;47.712;9.400;2023-03-03T18:25:25;5.70;99.90
5850;DHT22;2951;47.712;9.400;2023-03-03T18:30:25;5.70;99.90
5850;DHT22;2951;47.712;9.400;2023-03-03T18:37:53;5.70;99.90
5850;DHT22;2951;47.712;9.400;2023-03-03T18:40:26;5.80;99.90
5850;DHT22;2951;47.712;9.400;2023-03-03T18:42:54;5.80;99.90
5850;DHT22;2951;47.712;9.400;2023-03-03T18:50:32;5.80;99.90
5850;DHT22;2951;47.712;9.400;2023-03-03T19:00:57;5.60;99.90
5850;DHT22;2951;47.712;9.400;2023-03-03T19:05:55;5.40;99.90
5850;DHT22;2951;47.712;9.400;2023-03-03T19:10:53;5.30;99.90
5850;DHT22;2951;47.712;9.400;2023-03-03T19:16:06;5.30;99.90
5850;DHT22;2951;47.712;9.400;2023-03-03T19:18:34;5.30;99.90
5850;DHT22;2951;47.712;9.400;2023-03-03T19:21:02;5.40;99.90
5850;DHT22;2951;47.712;9.400;2023-03-03T19:28:50;5.40;99.90
5850;DHT22;2951;47.712;9.400;2023-03-03T19:34:14;5.20;99.90
5850;DHT22;2951;47.712;9.400;2023-03-03T19:47:25;4.90;99.90
5850;DHT22;2951;47.712;9.400;2023-03-03T19:59:58;4.90;99.90
5850;DHT22;2951;47.712;9.400;2023-03-03T20:12:47;5.10;99.90
5850;DHT22;2951;47.712;9.400;2023-03-03T20:15:19;5.00;99.90
5850;DHT22;2951;47.712;9.400;2023-03-03T20:17:50;5.00;99.90
5850;DHT22;2951;47.712;9.400;2023-03-03T20:20:27;5.00;99.90
5850;DHT22;2951;47.712;9.400;2023-03-03T20:27:59;4.80;99.90
5850;DHT22;2951;47.712;9.400;2023-03-03T20:33:41;4.80;99.90
5850;DHT22;2951;47.712;9.400;2023-03-03T20:38:52;5.00;99.90
5850;DHT22;2951;47.712;9.400;2023-03-03T20:41:29;5.00;99.90
5850;DHT22;2951;47.712;9.400;2023-03-03T20:49:13;5.00;99.90
5850;DHT22;2951;47.712;9.400;2023-03-03T20:51:47;5.10;99.90
5850;DHT22;2951;47.712;9.400;2023-03-03T21:04:16;5.10;99.90
5850;DHT22;2951;47.712;9.400;2023-03-03T21:06:43;5.10;99.90
5850;DHT22;2951;47.712;9.400;2023-03-03T21:09:32;5.10;99.90
5850;DHT22;2951;47.712;9.400;2023-03-03T21:11:58;4.90;99.90
5850;DHT22;2951;47.712;9.400;2023-03-03T21:14:28;4.70;99.90
5850;DHT22;2951;47.712;9.400;2023-03-03T21:16:57;4.70;99.90
5850;DHT22;2951;47.712;9.400;2023-03-03T21:19:26;4.70;99.90
5850;DHT22;2951;47.712;9.400;2023-03-03T21:21:53;4.70;99.90
5850;DHT22;2951;47.712;9.400;2023-03-03T21:24:20;4.80;99.90
5850;DHT22;2951;47.712;9.400;2023-03-03T21:26:48;4.80;99.90
5850;DHT22;2951;47.712;9.400;2023-03-03T21:31:46;4.70;99.90
5850;DHT22;2951;47.712;9.400;2023-03-03T21:34:17;4.80;99.90
5850;DHT22;2951;47.712;9.400;2023-03-03T21:36:46;4.70;99.90
5850;DHT22;2951;47.712;9.400;2023-03-03T21:39:20;4.80;99.90
5850;DHT22;2951;47.712;9.400;2023-03-03T21:46:59;4.70;99.90
5850;DHT22;2951;47.712;9.400;2023-03-03T21:49:26;4.70;99.90
5850;DHT22;2951;47.712;9.400;2023-03-03T21:51:53;4.60;99.90
5850;DHT22;2951;47.712;9.400;2023-03-03T21:54:20;4.60;99.90
5850;DHT22;2951;47.712;9.400;2023-03-03T21:56:47;4.70;99.90
5850;DHT22;2951;47.712;9.400;2023-03-03T21:59:18;4.60;99.90
5850;DHT22;2951;47.712;9.400;2023-03-03T22:01:45;4.60;99.90
5850;DHT22;2951;47.712;9.400;2023-03-03T22:04:11;4.40;99.90
5850;DHT22;2951;47.712;9.400;2023-03-03T22:06:38;4.30;99.90
5850;DHT22;2951;47.712;9.400;2023-03-03T22:09:05;4.30;99.90
5850;DHT22;2951;47.712;9.400;2023-03-03T22:11:32;4.30;99.90
5850;DHT22;2951;47.712;9.400;2023-03-03T22:13:59;4.30;99.90
5850;DHT22;2951;47.712;9.400;2023-03-03T22:16:25;4.30;99.90
5850;DHT22;2951;47.712;9.400;2023-03-03T22:18:52;4.30;99.90
5850;DHT22;2951;47.712;9.400;2023-03-03T22:21:19;4.30;99.90
5850;DHT22;2951;47.712;9.400;2023-03-03T22:23:45;4.20;99.90
5850;DHT22;2951;47.712;9.400;2023-03-03T22:26:12;4.10;99.90
5850;DHT22;2951;47.712;9.400;2023-03-03T22:28:38;4.10;99.90
5850;DHT22;2951;47.712;9.400;2023-03-03T22:31:07;4.10;99.90
5850;DHT22;2951;47.712;9.400;2023-03-03T22:33:34;3.80;99.90
5850;DHT22;2951;47.712;9.400;2023-03-03T22:36:00;3.70;99.90
5850;DHT22;2951;47.712;9.400;2023-03-03T22:38:27;3.50;99.90
5850;DHT22;2951;47.712;9.400;2023-03-03T22:40:54;3.40;99.90
5850;DHT22;2951;47.712;9.400;2023-03-03T22:43:21;3.40;99.90